createdAt,value
2022-08-12T00:02:03.127Z,101448.13
2022-08-12T00:04:52.452Z,101451.19
2022-08-12T00:07:38.233Z,101452.72
2022-08-12T00:10:23.497Z,101441.81
2022-08-12T00:13:08.977Z,101449.53
2022-08-12T00:15:54.664Z,101442.81
2022-08-12T00:18:39.613Z,101446.97
2022-08-12T00:21:25.083Z,101445.91
2022-08-12T00:24:12.874Z,101445.53
2022-08-12T00:27:00.885Z,101449.00
2022-08-12T00:29:48.177Z,101444.94
2022-08-12T00:32:35.524Z,101452.13
2022-08-12T00:35:32.105Z,101464.00
2022-08-12T00:38:22.705Z,101449.28
2022-08-12T00:41:07.484Z,101453.53
2022-08-12T00:43:35.854Z,101458.56
2022-08-12T00:46:21.830Z,101461.00
2022-08-12T00:48:49.501Z,101448.59
2022-08-12T00:51:16.868Z,101462.63
2022-08-12T00:53:43.621Z,101458.25
2022-08-12T00:56:10.608Z,101461.47
2022-08-12T00:58:43.834Z,101458.25
2022-08-12T01:01:10.442Z,101458.72
2022-08-12T01:03:57.619Z,101455.22
2022-08-12T01:06:46.321Z,101470.16
2022-08-12T01:09:38.129Z,101458.97
2022-08-12T01:12:06.484Z,101465.63
2022-08-12T01:14:33.745Z,101465.34
2022-08-12T01:17:00.426Z,101460.47
2022-08-12T01:19:27.248Z,101467.69
2022-08-12T01:22:12.658Z,101463.69
2022-08-12T01:25:24.088Z,101464.44
2022-08-12T01:27:53.062Z,101455.00
2022-08-12T01:30:20.086Z,101462.91
2022-08-12T01:32:49.906Z,101463.94
2022-08-12T01:35:17.676Z,101460.56
2022-08-12T01:38:06.042Z,101462.50
2022-08-12T01:40:37.662Z,101459.84
2022-08-12T01:43:10.658Z,101457.63
2022-08-12T01:45:47.260Z,101456.09
2022-08-12T01:48:36.310Z,101450.03
2022-08-12T01:52:15.894Z,101453.88
2022-08-12T01:54:18.223Z,101454.06
2022-08-12T01:56:50.389Z,101458.81
2022-08-12T01:59:45.768Z,101458.56
2022-08-12T02:02:19.136Z,101457.00
2022-08-12T02:05:28.684Z,101451.22
2022-08-12T02:08:36.593Z,101454.88
2022-08-12T02:11:23.326Z,101452.88
2022-08-12T02:14:23.829Z,101453.91
2022-08-12T02:16:56.582Z,101458.84
2022-08-12T02:19:35.377Z,101460.16
2022-08-12T02:22:31.272Z,101460.41
2022-08-12T02:25:16.307Z,101463.25
2022-08-12T02:27:48.425Z,101460.47
2022-08-12T02:30:21.972Z,101455.84
2022-08-12T02:32:51.085Z,101463.00
2022-08-12T02:35:24.395Z,101472.63
2022-08-12T02:37:53.784Z,101455.84
2022-08-12T02:40:22.462Z,101471.94
2022-08-12T02:43:15.691Z,101461.94
2022-08-12T02:45:47.897Z,101465.75
2022-08-12T02:48:21.820Z,101464.34
2022-08-12T02:50:52.560Z,101464.19
2022-08-12T02:53:19.874Z,101463.25
2022-08-12T02:55:46.825Z,101463.28
2022-08-12T02:58:14.863Z,101466.56
2022-08-12T03:00:43.467Z,101468.66
2022-08-12T03:03:13.701Z,101472.22
2022-08-12T03:05:52.569Z,101460.78
2022-08-12T03:08:32.214Z,101463.47
2022-08-12T03:11:14.136Z,101466.84
2022-08-12T03:13:45.775Z,101460.06
2022-08-12T03:16:13.875Z,101462.88
2022-08-12T03:18:45.829Z,101467.13
2022-08-12T03:21:16.795Z,101469.34
2022-08-12T03:23:45.091Z,101459.66
2022-08-12T03:26:12.215Z,101465.59
2022-08-12T03:28:50.810Z,101465.31
2022-08-12T03:31:33.602Z,101457.69
2022-08-12T03:34:11.254Z,101458.38
2022-08-12T03:36:40.315Z,101466.56
2022-08-12T03:39:35.211Z,101460.38
2022-08-12T03:42:22.038Z,101456.84
2022-08-12T03:45:16.695Z,101457.25
2022-08-12T03:48:19.099Z,101458.13
2022-08-12T03:51:06.291Z,101464.72
2022-08-12T03:53:52.013Z,101454.16
2022-08-12T03:56:37.920Z,101457.69
2022-08-12T03:59:24.456Z,101466.56
2022-08-12T04:01:58.159Z,101450.50
2022-08-12T04:04:28.590Z,101455.16
2022-08-12T04:06:56.062Z,101457.56
2022-08-12T04:09:23.128Z,101463.22
2022-08-12T04:12:08.688Z,101456.97
2022-08-12T04:14:35.574Z,101460.94
2022-08-12T04:17:03.754Z,101463.59
2022-08-12T04:19:30.969Z,101464.59
2022-08-12T04:22:01.766Z,101469.09
2022-08-12T04:24:36.717Z,101469.09
2022-08-12T04:27:08.241Z,101473.25
2022-08-12T04:30:20.975Z,101472.69
2022-08-12T04:32:22.219Z,101473.13
2022-08-12T04:34:49.887Z,101471.00
2022-08-12T04:37:16.683Z,101465.31
2022-08-12T04:39:45.905Z,101467.19
2022-08-12T04:42:13.036Z,101466.50
2022-08-12T04:44:40.378Z,101460.72
2022-08-12T04:47:11.037Z,101461.06
2022-08-12T04:49:39.469Z,101457.78
2022-08-12T04:52:06.207Z,101458.47
2022-08-12T04:54:34.071Z,101463.13
2022-08-12T04:57:04.604Z,101465.78
2022-08-12T04:59:48.014Z,101455.38
2022-08-12T05:02:21.676Z,101453.16
2022-08-12T05:04:51.634Z,101454.59
2022-08-12T05:07:19.312Z,101453.47
2022-08-12T05:09:58.855Z,101456.56
2022-08-12T05:12:34.219Z,101454.88
2022-08-12T05:15:01.069Z,101458.81
2022-08-12T05:17:28.512Z,101462.31
2022-08-12T05:19:57.466Z,101458.97
2022-08-12T05:22:26.814Z,101464.31
2022-08-12T05:24:54.062Z,101460.38
2022-08-12T05:27:22.640Z,101460.66
2022-08-12T05:30:07.422Z,101462.22
2022-08-12T05:32:36.763Z,101456.16
2022-08-12T05:35:06.646Z,101463.88
2022-08-12T05:37:34.910Z,101463.19
2022-08-12T05:40:08.284Z,101468.13
2022-08-12T05:42:37.337Z,101469.81
2022-08-12T05:45:04.487Z,101470.22
2022-08-12T05:47:44.846Z,101474.13
2022-08-12T05:50:18.047Z,101468.72
2022-08-12T05:52:45.639Z,101474.28
2022-08-12T05:55:14.720Z,101478.63
2022-08-12T05:57:41.321Z,101476.66
2022-08-12T06:00:08.377Z,101482.13
2022-08-12T06:02:38.230Z,101484.34
2022-08-12T06:05:10.532Z,101479.41
2022-08-12T06:08:01.185Z,101490.66
2022-08-12T06:10:31.642Z,101489.97
2022-08-12T06:13:09.258Z,101493.97
2022-08-12T06:15:39.825Z,101489.19
2022-08-12T06:18:14.096Z,101486.22
2022-08-12T06:20:43.360Z,101497.50
2022-08-12T06:23:11.881Z,101491.69
2022-08-12T06:25:38.922Z,101488.63
2022-08-12T06:28:17.616Z,101484.75
2022-08-12T06:30:53.089Z,101484.75
2022-08-12T06:34:00.709Z,101486.63
2022-08-12T06:36:21.131Z,101490.69
2022-08-12T06:38:49.296Z,101485.09
2022-08-12T06:41:35.017Z,101494.38
2022-08-12T06:44:07.015Z,101485.84
2022-08-12T06:46:36.776Z,101485.53
2022-08-12T06:49:03.987Z,101483.59
2022-08-12T06:51:32.199Z,101486.75
2022-08-12T06:54:00.587Z,101481.09
2022-08-12T06:56:59.627Z,101482.72
2022-08-12T06:59:15.734Z,101477.81
2022-08-12T07:01:50.750Z,101478.13
2022-08-12T07:04:36.726Z,101480.72
2022-08-12T07:07:09.458Z,101481.56
2022-08-12T07:10:04.130Z,101478.03
2022-08-12T07:12:27.843Z,101482.75
2022-08-12T07:14:58.836Z,101483.56
2022-08-12T07:17:35.829Z,101487.84
2022-08-12T07:20:35.962Z,101487.22
2022-08-12T07:23:00.592Z,101481.09
2022-08-12T07:25:37.546Z,101482.97
2022-08-12T07:28:24.758Z,101485.50
2022-08-12T07:30:53.215Z,101489.53
2022-08-12T07:33:25.081Z,101494.53
2022-08-12T07:35:53.923Z,101495.25
2022-08-12T07:38:34.092Z,101497.13
2022-08-12T07:41:03.284Z,101499.53
2022-08-12T07:43:30.976Z,101490.66
2022-08-12T07:45:58.136Z,101499.56
2022-08-12T07:48:24.944Z,101489.31
2022-08-12T07:50:52.872Z,101503.13
2022-08-12T07:53:20.800Z,101495.34
2022-08-12T07:55:47.795Z,101490.78
2022-08-12T07:58:14.387Z,101499.88
2022-08-12T08:00:41.011Z,101503.75
2022-08-12T08:03:08.834Z,101503.84
2022-08-12T08:05:45.818Z,101500.63
2022-08-12T08:08:21.681Z,101502.50
2022-08-12T08:10:50.661Z,101501.38
2022-08-12T08:13:18.245Z,101506.91
2022-08-12T08:16:02.307Z,101502.97
2022-08-12T08:18:31.298Z,101497.09
2022-08-12T08:20:57.841Z,101503.06
2022-08-12T08:23:55.826Z,101505.47
2022-08-12T08:26:24.815Z,101504.63
2022-08-12T08:28:51.419Z,101506.97
2022-08-12T08:31:18.667Z,101506.56
2022-08-12T08:34:08.935Z,101494.59
2022-08-12T08:36:31.763Z,101504.56
2022-08-12T08:38:58.886Z,101488.31
2022-08-12T08:42:15.751Z,101497.09
2022-08-12T08:44:33.497Z,101492.34
2022-08-12T08:47:01.299Z,101500.34
2022-08-12T08:49:27.878Z,101495.06
2022-08-12T08:51:54.419Z,101501.56
2022-08-12T08:54:20.979Z,101496.34
2022-08-12T08:56:50.414Z,101495.31
2022-08-12T08:59:19.257Z,101493.75
2022-08-12T09:01:47.462Z,101494.38
2022-08-12T09:05:07.035Z,101495.06
2022-08-12T09:07:14.956Z,101493.28
2022-08-12T09:10:02.419Z,101497.69
2022-08-12T09:12:54.210Z,101484.25
2022-08-12T09:15:23.353Z,101491.75
2022-08-12T09:20:52.261Z,101478.97
2022-08-12T09:23:58.431Z,101482.38
2022-08-12T09:26:09.465Z,101473.91
2022-08-12T09:28:37.125Z,101472.63
2022-08-12T09:32:06.990Z,101475.19
2022-08-12T09:34:28.856Z,101469.97
2022-08-12T09:36:58.041Z,101477.59
2022-08-12T09:40:04.394Z,101472.84
2022-08-12T09:42:43.968Z,101477.91
2022-08-12T09:45:24.560Z,101468.72
2022-08-12T09:48:09.709Z,101468.25
2022-08-12T09:50:36.562Z,101474.34
2022-08-12T09:53:14.998Z,101467.72
2022-08-12T09:56:05.482Z,101463.84
2022-08-12T09:58:58.113Z,101465.78
2022-08-12T10:01:24.500Z,101458.56
2022-08-12T10:04:03.312Z,101464.25
2022-08-12T10:06:32.491Z,101457.00
2022-08-12T10:09:08.442Z,101449.84
2022-08-12T10:12:12.314Z,101446.78
2022-08-12T10:14:52.316Z,101449.75
2022-08-12T10:17:22.812Z,101436.94
2022-08-12T10:19:52.928Z,101439.66
2022-08-12T10:22:36.810Z,101431.72
2022-08-12T10:25:25.090Z,101425.72
2022-08-12T10:28:30.016Z,101416.75
2022-08-12T10:30:58.910Z,101419.72
2022-08-12T10:33:30.809Z,101418.44
2022-08-12T10:35:59.716Z,101411.69
2022-08-12T10:38:36.088Z,101416.53
2022-08-12T10:41:57.775Z,101402.09
2022-08-12T10:44:17.289Z,101389.25
2022-08-12T10:46:49.264Z,101387.28
2022-08-12T10:50:05.641Z,101382.09
2022-08-12T10:52:34.449Z,101389.44
2022-08-12T10:54:55.897Z,101379.03
2022-08-12T10:58:15.559Z,101373.13
2022-08-12T11:00:34.207Z,101365.63
2022-08-12T11:04:28.595Z,101377.44
2022-08-12T11:07:07.181Z,101376.34
2022-08-12T11:08:43.713Z,101370.22
2022-08-12T11:11:17.586Z,101371.53
2022-08-12T11:13:48.865Z,101358.63
2022-08-12T11:16:21.864Z,101366.84
2022-08-12T11:18:54.621Z,101357.44
2022-08-12T11:21:22.301Z,101358.69
2022-08-12T11:23:53.688Z,101363.50
2022-08-12T11:26:21.541Z,101358.25
2022-08-12T11:28:59.272Z,101342.41
2022-08-12T11:31:41.045Z,101348.22
2022-08-12T11:34:51.611Z,101338.69
2022-08-12T11:37:07.302Z,101341.34
2022-08-12T11:42:37.409Z,101351.28
2022-08-12T11:45:12.895Z,101341.69
2022-08-12T11:47:43.356Z,101339.63
2022-08-12T11:50:11.730Z,101332.19
2022-08-12T11:52:56.422Z,101327.16
2022-08-12T11:55:33.043Z,101322.72
2022-08-12T11:58:38.327Z,101326.97
2022-08-12T12:03:43.807Z,101331.13
2022-08-12T12:06:17.273Z,101323.25
2022-08-12T12:08:52.875Z,101320.97
2022-08-12T12:11:20.685Z,101319.22
2022-08-12T12:14:08.891Z,101318.91
2022-08-12T12:16:39.794Z,101314.53
2022-08-12T12:19:08.745Z,101324.53
2022-08-12T12:21:46.929Z,101314.19
2022-08-12T12:24:22.011Z,101319.00
2022-08-12T12:27:00.951Z,101303.13
2022-08-12T12:30:20.042Z,101299.16
2022-08-12T12:32:16.173Z,101300.03
2022-08-12T12:35:14.003Z,101302.53
2022-08-12T12:38:04.590Z,101298.38
2022-08-12T12:40:16.209Z,101297.75
2022-08-12T12:42:55.251Z,101289.03
2022-08-12T12:45:26.152Z,101285.47
2022-08-12T12:48:02.924Z,101274.56
2022-08-12T12:50:45.393Z,101268.75
2022-08-12T12:54:05.846Z,101274.16
2022-08-12T12:56:15.606Z,101271.22
2022-08-12T12:58:43.502Z,101272.06
2022-08-12T13:01:25.548Z,101266.44
2022-08-12T13:03:56.401Z,101258.06
2022-08-12T13:06:32.402Z,101262.47
2022-08-12T13:09:03.017Z,101249.06
2022-08-12T13:11:41.635Z,101247.63
2022-08-12T13:14:29.149Z,101254.91
2022-08-12T13:17:00.984Z,101251.63
2022-08-12T13:19:38.888Z,101249.94
2022-08-12T13:22:18.193Z,101238.25
2022-08-12T13:24:45.369Z,101238.44
2022-08-12T13:27:11.917Z,101246.81
2022-08-12T13:29:39.313Z,101237.38
2022-08-12T13:32:18.728Z,101235.53
2022-08-12T13:34:53.309Z,101239.28
2022-08-12T13:37:43.915Z,101229.25
2022-08-12T13:40:18.467Z,101227.38
2022-08-12T13:42:50.976Z,101219.88
2022-08-12T13:45:17.707Z,101230.72
2022-08-12T13:47:55.439Z,101230.28
2022-08-12T13:50:29.789Z,101234.25
2022-08-12T13:52:56.733Z,101227.34
2022-08-12T13:55:30.982Z,101209.81
2022-08-12T13:58:00.075Z,101219.44
2022-08-12T14:00:37.983Z,101213.38
2022-08-12T14:03:06.196Z,101212.13
2022-08-12T14:05:39.047Z,101213.38
2022-08-12T14:08:08.530Z,101208.56
2022-08-12T14:10:38.184Z,101199.56
2022-08-12T14:14:03.486Z,101193.75
2022-08-12T14:16:11.001Z,101197.91
2022-08-12T14:18:44.762Z,101189.16
2022-08-12T14:21:18.250Z,101196.66
2022-08-12T14:24:02.037Z,101194.56
2022-08-12T14:26:32.444Z,101194.34
2022-08-12T14:29:02.441Z,101190.19
2022-08-12T14:31:31.917Z,101183.50
2022-08-12T14:33:59.792Z,101176.81
2022-08-12T14:36:26.726Z,101182.19
2022-08-12T14:38:55.041Z,101188.91
2022-08-12T14:41:37.204Z,101189.53
2022-08-12T14:44:57.880Z,101186.84
2022-08-12T14:46:59.456Z,101183.06
2022-08-12T14:50:01.023Z,101181.03
2022-08-12T14:53:13.595Z,101183.50
2022-08-12T14:57:57.195Z,101175.88
2022-08-12T15:00:50.694Z,101175.28
2022-08-12T15:03:23.176Z,101167.75
2022-08-12T15:06:05.564Z,101168.41
2022-08-12T15:08:36.737Z,101169.66
2022-08-12T15:11:06.319Z,101160.44
2022-08-12T15:13:39.785Z,101159.63
2022-08-12T15:16:08.465Z,101155.00
2022-08-12T15:18:36.789Z,101160.47
2022-08-12T15:21:11.085Z,101162.34
2022-08-12T15:23:45.808Z,101156.00
2022-08-12T15:26:28.373Z,101154.63
2022-08-12T15:28:56.508Z,101160.53
2022-08-12T15:31:27.707Z,101151.78
2022-08-12T15:33:55.156Z,101156.56
2022-08-12T15:36:54.143Z,101152.81
2022-08-12T15:39:17.109Z,101146.13
2022-08-12T15:41:50.334Z,101156.78
2022-08-12T15:44:38.692Z,101150.28
2022-08-12T15:47:04.633Z,101148.00
2022-08-12T15:49:43.005Z,101149.03
2022-08-12T15:52:27.397Z,101148.66
2022-08-12T15:54:58.769Z,101137.59
2022-08-12T15:57:33.495Z,101142.78
2022-08-12T16:00:07.328Z,101133.97
2022-08-12T16:02:50.365Z,101124.16
2022-08-12T16:06:11.810Z,101127.94
2022-08-12T16:08:17.133Z,101137.16
2022-08-12T16:10:45.413Z,101135.47
2022-08-12T16:13:18.132Z,101134.84
2022-08-12T16:16:02.510Z,101126.72
2022-08-12T16:18:33.246Z,101119.22
2022-08-12T16:21:00.538Z,101140.53
2022-08-12T16:23:52.130Z,101129.44
2022-08-12T16:26:19.956Z,101121.28
2022-08-12T16:28:47.921Z,101117.13
2022-08-12T16:31:23.495Z,101117.53
2022-08-12T16:33:59.666Z,101116.72
2022-08-12T16:36:29.175Z,101108.56
2022-08-12T16:38:55.902Z,101111.94
2022-08-12T16:41:23.063Z,101123.00
2022-08-12T16:43:50.430Z,101116.13
2022-08-12T16:46:32.740Z,101113.59
2022-08-12T16:49:08.547Z,101105.44
2022-08-12T16:51:37.558Z,101110.00
2022-08-12T16:54:12.754Z,101097.91
2022-08-12T16:56:54.735Z,101102.31
2022-08-12T16:59:26.275Z,101106.06
2022-08-12T17:01:57.995Z,101095.00
2022-08-12T17:04:25.370Z,101106.25
2022-08-12T17:06:52.499Z,101113.78
2022-08-12T17:09:19.441Z,101102.72
2022-08-12T17:11:49.122Z,101108.13
2022-08-12T17:14:23.033Z,101093.94
2022-08-12T17:16:51.825Z,101095.81
2022-08-12T17:19:20.260Z,101094.56
2022-08-12T17:22:08.886Z,101099.16
2022-08-12T17:24:39.979Z,101107.72
2022-08-12T17:27:16.345Z,101102.91
2022-08-12T17:30:02.882Z,101114.16
2022-08-12T17:32:33.474Z,101111.88
2022-08-12T17:35:18.942Z,101121.03
2022-08-12T17:37:48.465Z,101123.94
2022-08-12T17:40:34.887Z,101116.25
2022-08-12T17:43:56.784Z,101119.16
2022-08-12T17:45:56.122Z,101116.41
2022-08-12T17:48:35.180Z,101122.00
2022-08-12T17:51:15.596Z,101109.72
2022-08-12T17:54:10.543Z,101116.59
2022-08-12T17:56:37.111Z,101109.72
2022-08-12T17:59:07.707Z,101107.19
2022-08-12T18:01:35.835Z,101113.25
2022-08-12T18:04:20.308Z,101116.75
2022-08-12T18:06:49.224Z,101116.53
2022-08-12T18:09:18.136Z,101121.53
2022-08-12T18:12:07.905Z,101113.81
2022-08-12T18:14:37.306Z,101123.16
2022-08-12T18:17:08.914Z,101120.63
2022-08-12T18:20:04.953Z,101130.00
2022-08-12T18:22:30.638Z,101134.34
2022-08-12T18:25:04.969Z,101133.25
2022-08-12T18:27:44.796Z,101141.53
2022-08-12T18:30:20.303Z,101141.28
2022-08-12T18:33:03.454Z,101149.41
2022-08-12T18:35:47.691Z,101152.97
2022-08-12T18:38:19.225Z,101149.16
2022-08-12T18:41:07.333Z,101146.56
2022-08-12T18:43:59.281Z,101150.06
2022-08-12T18:46:32.054Z,101157.75
2022-08-12T18:49:17.261Z,101156.44
2022-08-12T18:52:02.458Z,101160.56
2022-08-12T18:54:35.666Z,101152.81
2022-08-12T18:57:16.281Z,101159.78
2022-08-12T19:00:01.237Z,101163.13
2022-08-12T19:02:33.013Z,101164.09
2022-08-12T19:05:08.688Z,101170.22
2022-08-12T19:07:58.134Z,101169.31
2022-08-12T19:10:27.416Z,101167.59
2022-08-12T19:13:21.239Z,101171.91
2022-08-12T19:15:53.436Z,101181.13
2022-08-12T19:18:22.104Z,101184.88
2022-08-12T19:20:50.404Z,101177.31
2022-08-12T19:23:21.135Z,101183.88
2022-08-12T19:25:55.398Z,101182.13
2022-08-12T19:28:35.556Z,101185.59
2022-08-12T19:31:55.571Z,101186.91
2022-08-12T19:37:38.776Z,101191.75
2022-08-12T19:40:20.270Z,101195.84
2022-08-12T19:43:00.900Z,101199.47
2022-08-12T19:45:43.220Z,101194.50
2022-08-12T19:48:17.868Z,101197.31
2022-08-12T19:50:50.560Z,101206.53
2022-08-12T19:53:22.935Z,101204.38
2022-08-12T19:55:53.487Z,101208.84
2022-08-12T19:58:21.160Z,101212.47
2022-08-12T20:00:52.533Z,101210.31
2022-08-12T20:03:39.906Z,101209.69
2022-08-12T20:06:13.635Z,101213.59
2022-08-12T20:08:48.793Z,101214.25
2022-08-12T20:12:14.577Z,101210.88
2022-08-12T20:14:04.047Z,101212.28
2022-08-12T20:16:51.926Z,101208.63
2022-08-12T20:19:24.906Z,101214.88
2022-08-12T20:22:14.565Z,101218.47
2022-08-12T20:24:42.493Z,101225.25
2022-08-12T20:27:29.248Z,101224.09
2022-08-12T20:30:00.781Z,101214.97
2022-08-12T20:32:29.637Z,101222.78
2022-08-12T20:35:10.230Z,101223.00
2022-08-12T20:38:07.696Z,101227.09
2022-08-12T20:40:24.254Z,101217.03
2022-08-12T20:42:53.534Z,101223.09
2022-08-12T20:45:22.062Z,101217.88
2022-08-12T20:48:02.034Z,101217.38
2022-08-12T20:50:31.133Z,101223.38
2022-08-12T20:53:00.774Z,101223.22
2022-08-12T20:55:42.530Z,101224.56
2022-08-12T20:58:09.735Z,101222.91
2022-08-12T21:00:36.342Z,101220.25
2022-08-12T21:03:23.801Z,101219.94
2022-08-12T21:06:12.706Z,101216.63
2022-08-12T21:08:41.641Z,101226.38
2022-08-12T21:11:10.226Z,101224.72
2022-08-12T21:13:41.946Z,101224.56
2022-08-12T21:16:10.167Z,101222.69
2022-08-12T21:18:37.541Z,101213.28
2022-08-12T21:21:06.470Z,101218.69
2022-08-12T21:23:37.408Z,101223.84
2022-08-12T21:26:16.281Z,101223.38
2022-08-12T21:28:58.471Z,101221.03
2022-08-12T21:32:37.809Z,101232.13
2022-08-12T21:34:19.281Z,101233.00
2022-08-12T21:36:49.576Z,101228.78
2022-08-12T21:39:30.512Z,101234.34
2022-08-12T21:42:07.003Z,101233.19
2022-08-12T21:45:47.638Z,101231.84
2022-08-12T21:47:23.531Z,101234.38
2022-08-12T21:50:06.626Z,101233.88
2022-08-12T21:52:37.005Z,101236.06
2022-08-12T21:55:17.991Z,101234.88
2022-08-12T21:57:53.136Z,101233.53
2022-08-12T22:00:31.751Z,101244.31
2022-08-12T22:04:03.666Z,101248.00
2022-08-12T22:06:31.463Z,101249.34
2022-08-12T22:09:17.152Z,101247.50
2022-08-12T22:11:56.253Z,101249.84
2022-08-12T22:14:24.227Z,101247.31
2022-08-12T22:16:53.173Z,101245.28
2022-08-12T22:19:21.504Z,101247.63
2022-08-12T22:21:54.967Z,101239.09
2022-08-12T22:24:25.916Z,101238.22
2022-08-12T22:26:55.223Z,101247.31
2022-08-12T22:29:40.727Z,101246.81
2022-08-12T22:32:08.230Z,101252.84
2022-08-12T22:34:39.303Z,101247.81
2022-08-12T22:37:11.420Z,101247.47
2022-08-12T22:39:46.395Z,101254.69
2022-08-12T22:42:34.179Z,101246.13
2022-08-12T22:45:23.071Z,101247.47
2022-08-12T22:47:54.685Z,101240.22
2022-08-12T22:50:27.436Z,101245.28
2022-08-12T22:53:17.119Z,101238.38
2022-08-12T22:55:59.908Z,101241.22
2022-08-12T22:58:33.576Z,101251.13
2022-08-12T23:01:01.804Z,101245.22
2022-08-12T23:03:48.860Z,101240.19
2022-08-12T23:06:25.328Z,101241.53
2022-08-12T23:08:54.923Z,101249.25
2022-08-12T23:11:23.231Z,101236.59
2022-08-12T23:13:55.403Z,101237.81
2022-08-12T23:16:30.971Z,101240.19
2022-08-12T23:19:09.506Z,101233.47
2022-08-12T23:22:03.736Z,101232.09
2022-08-12T23:24:30.956Z,101233.91
2022-08-12T23:27:18.119Z,101234.41
2022-08-12T23:30:17.823Z,101228.19
2022-08-12T23:32:36.780Z,101235.41
2022-08-12T23:35:06.579Z,101228.34
2022-08-12T23:37:47.252Z,101230.53
2022-08-12T23:40:22.152Z,101227.84
2022-08-12T23:42:49.356Z,101222.88
2022-08-12T23:45:20.680Z,101230.44
2022-08-12T23:48:00.143Z,101225.06
2022-08-12T23:50:34.007Z,101232.47
2022-08-12T23:53:07.834Z,101232.44
2022-08-12T23:55:45.475Z,101227.38
2022-08-12T23:58:17.773Z,101226.50
